Resighini Rancheria, California
Current Conditions -  °F | °C
As of 6:53 PM on Friday 21 Nov 2014 (Local Time) from KACV Reporting Station
Overcast Overcast  
Wind Chill: 58°   Ceiling: 2900
Heat Index: 58°   Visibility: 10mi
Dew Point: 52°   Wind: 15mph
Humidity: 81%   Direction: 140°SE
Pressure: 29.88"   Gusts: NA
Location:  41.4038°N, 123.781°W
Report Text: KACV 220253Z AUTO 14013KT 10SM OVC029 14/11 A2988 RMK AO2 SLP123 60000 T01440111 58019
Loading
Personal Weather Stations






























Interactive Weather Map New forecast layout! Learn more

10-Day Weather Forecast

Advertisements
Track Severe Weather on mobile